Time;durP1;ratioP1;P1;durP2;ratioP2;P2;SDS_P1;SDS_P2;PMS_P1;PMS_P2;Temp;Humidity;BMP_temperature;BMP_pressure;BME280_temperature;BME280_humidity;BME280_pressure;Samples;Min_cycle;Max_cycle;Signal;HPM_P1;HPM_P2
2022/08/12 00:44:47;;;;;;;;;;;;;;;;;;2218898;58;1366;-54
2022/08/12 00:47:20;;;;;;;;;;;;;;;;;;2218908;66;1142;-54
2022/08/12 00:49:54;;;;;;;;;;;;;;;;;;2218262;66;1898;-54
2022/08/12 00:52:31;;;;;;;;;;;;;;;;;;2218833;66;1311;-54
2022/08/12 00:55:05;;;;;;;;;;;;;;;;;;2218393;66;1228;-54
2022/08/12 00:57:38;;;;;;;;;;;;;;;;;;2218249;66;1247;-56
2022/08/12 01:00:13;;;;;;;;;;;;;;;;;;2218801;66;1239;-54
2022/08/12 01:02:50;;;;;;;;;;;;;;;;;;2218313;58;1798;-54
2022/08/12 01:13:54;;;;;;;;;;;;;;;;;;2219024;66;1055;-54
2022/08/12 01:16:28;;;;;;;;;;;;;;;;;;2219150;66;1319;-53
2022/08/12 01:19:02;;;;;;;;;;;;;;;;;;2218787;58;1352;-54
2022/08/12 01:21:47;;;;;;;;;;;;;;;;;;2218909;66;2183;-54
2022/08/12 01:24:36;;;;;;;;;;;;;;;;;;2219270;66;1231;-54
2022/08/12 01:27:13;;;;;;;;;;;;;;;;;;2218832;66;1104;-54
2022/08/12 01:29:47;;;;;;;;;;;;;;;;;;2218516;66;1937;-54
2022/08/12 01:43:07;;;;;;;;;;;;;;;;;;2264389;53;2176;-61
2022/08/12 01:45:42;;;;;;;;;;;;;;;;;;2213521;59;1639;-63
2022/08/12 01:48:21;;;;;;;;;;;;;;;;;;2212298;59;1980;-64
2022/08/12 01:51:00;;;;;;;;;;;;;;;;;;2212956;59;1587;-64
2022/08/12 01:53:40;;;;;;;;;;;;;;;;;;2209252;67;1151;-64
2022/08/12 01:56:13;;;;;;;;;;;;;;;;;;2208609;67;1287;-61
2022/08/12 02:01:39;;;;;;;;;;;;;;;;;;2210101;59;1628;-61
2022/08/12 02:13:03;;;;;;;;;;;;;;;;;;2209468;59;1314;-62
2022/08/12 02:15:45;;;;;;;;;;;;;;;;;;2209586;67;1162;-63
2022/08/12 02:18:27;;;;;;;;;;;;;;;;;;2208786;59;1504;-62
2022/08/12 02:21:03;;;;;;;;;;;;;;;;;;2209588;66;1213;-61
2022/08/12 02:23:38;;;;;;;;;;;;;;;;;;2210332;67;1261;-64
2022/08/12 02:26:14;;;;;;;;;;;;;;;;;;2209766;67;1182;-63
2022/08/12 02:28:47;;;;;;;;;;;;;;;;;;2208917;67;1981;-64
2022/08/12 02:31:24;;;;;;;;;;;;;;;;;;2209089;67;1258;-64
2022/08/12 02:33:57;;;;;;;;;;;;;;;;;;2208943;67;1270;-61
2022/08/12 02:36:31;;;;;;;;;;;;;;;;;;2210006;59;1392;-64
2022/08/12 02:39:05;;;;;;;;;;;;;;;;;;2209284;67;1183;-62
2022/08/12 02:41:38;;;;;;;;;;;;;;;;;;2210077;59;1269;-63
2022/08/12 02:44:14;;;;;;;;;;;;;;;;;;2208843;59;1266;-63
2022/08/12 02:46:51;;;;;;;;;;;;;;;;;;2209511;67;1246;-64
2022/08/12 02:49:27;;;;;;;;;;;;;;;;;;2209718;67;1935;-63
2022/08/12 02:52:01;;;;;;;;;;;;;;;;;;2209382;66;1200;-62
2022/08/12 02:54:34;;;;;;;;;;;;;;;;;;2210610;67;1223;-63
2022/08/12 02:57:07;;;;;;;;;;;;;;;;;;2209852;67;1254;-63
2022/08/12 02:59:41;;;;;;;;;;;;;;;;;;2210636;67;1196;-64
2022/08/12 03:02:20;;;;;;;;;;;;;;;;;;2209510;59;1461;-64
2022/08/12 03:04:55;;;;;;;;;;;;;;;;;;2209172;59;2240;-61
2022/08/12 03:07:34;;;;;;;;;;;;;;;;;;2209291;59;1276;-61
2022/08/12 03:10:09;;;;;;;;;;;;;;;;;;2209182;67;1927;-62
2022/08/12 03:12:43;;;;;;;;;;;;;;;;;;2210041;59;1271;-63
2022/08/12 03:15:17;;;;;;;;;;;;;;;;;;2209619;67;1106;-62
2022/08/12 03:17:56;;;;;;;;;;;;;;;;;;2209484;59;1176;-63
2022/08/12 03:20:29;;;;;;;;;;;;;;;;;;2210246;59;1199;-62
2022/08/12 03:23:04;;;;;;;;;;;;;;;;;;2209331;66;1280;-62
2022/08/12 03:25:40;;;;;;;;;;;;;;;;;;2209307;67;1183;-64
2022/08/12 03:28:48;;;;;;;;;;;;;;;;;;2208917;67;1118;-64
2022/08/12 03:31:08;;;;;;;;;;;;;;;;;;2209120;67;1308;-64
2022/08/12 03:33:45;;;;;;;;;;;;;;;;;;2209426;67;1313;-64
2022/08/12 03:36:20;;;;;;;;;;;;;;;;;;2208763;59;1429;-63
2022/08/12 03:39:18;;;;;;;;;;;;;;;;;;2208880;59;1353;-63
2022/08/12 03:41:51;;;;;;;;;;;;;;;;;;2208535;59;2046;-64
2022/08/12 04:01:28;;;;;;;;;;;;;;;;;;2209113;59;1684;-63
2022/08/12 04:04:02;;;;;;;;;;;;;;;;;;2208211;59;1353;-63
2022/08/12 04:06:43;;;;;;;;;;;;;;;;;;2208527;67;1147;-63
2022/08/12 04:09:16;;;;;;;;;;;;;;;;;;2209537;67;1992;-61
2022/08/12 04:14:40;;;;;;;;;;;;;;;;;;2208812;67;1095;-62
2022/08/12 04:17:14;;;;;;;;;;;;;;;;;;2208584;67;1123;-63
2022/08/12 04:19:48;;;;;;;;;;;;;;;;;;2207892;67;1481;-64
2022/08/12 04:22:25;;;;;;;;;;;;;;;;;;2208870;67;1278;-64
2022/08/12 04:25:00;;;;;;;;;;;;;;;;;;2208671;67;1247;-63
2022/08/12 04:27:33;;;;;;;;;;;;;;;;;;2209093;67;1153;-63
2022/08/12 04:30:07;;;;;;;;;;;;;;;;;;2209516;67;1984;-63
2022/08/12 04:32:41;;;;;;;;;;;;;;;;;;2210384;67;1164;-63
2022/08/12 04:35:14;;;;;;;;;;;;;;;;;;2208936;67;1254;-61
2022/08/12 04:37:54;;;;;;;;;;;;;;;;;;2210893;59;1303;-64
2022/08/12 04:40:28;;;;;;;;;;;;;;;;;;2210519;59;1168;-64
2022/08/12 04:43:02;;;;;;;;;;;;;;;;;;2210159;59;1246;-63
2022/08/12 04:45:38;;;;;;;;;;;;;;;;;;2210667;59;1252;-63
2022/08/12 04:48:11;;;;;;;;;;;;;;;;;;2210284;67;1197;-63
2022/08/12 04:50:45;;;;;;;;;;;;;;;;;;2210530;67;1933;-61
2022/08/12 04:53:22;;;;;;;;;;;;;;;;;;2210379;67;1269;-61
2022/08/12 04:55:57;;;;;;;;;;;;;;;;;;2210075;66;1215;-59
2022/08/12 04:58:31;;;;;;;;;;;;;;;;;;2210626;59;1085;-64
2022/08/12 05:01:04;;;;;;;;;;;;;;;;;;2210459;67;1266;-63
2022/08/12 05:03:37;;;;;;;;;;;;;;;;;;2210015;59;2005;-63
2022/08/12 05:06:11;;;;;;;;;;;;;;;;;;2209788;67;1229;-64
2022/08/12 05:08:47;;;;;;;;;;;;;;;;;;2211155;59;1099;-63
2022/08/12 05:11:23;;;;;;;;;;;;;;;;;;2210508;59;1931;-61
2022/08/12 05:13:59;;;;;;;;;;;;;;;;;;2210035;67;1256;-63
2022/08/12 05:16:34;;;;;;;;;;;;;;;;;;2210642;59;1095;-61
2022/08/12 05:19:08;;;;;;;;;;;;;;;;;;2210744;67;1226;-60
2022/08/12 05:21:42;;;;;;;;;;;;;;;;;;2209577;67;1279;-63
2022/08/12 05:24:18;;;;;;;;;;;;;;;;;;2210931;67;1168;-60
2022/08/12 05:26:52;;;;;;;;;;;;;;;;;;2210516;67;1678;-62
2022/08/12 05:29:28;;;;;;;;;;;;;;;;;;2210323;59;1987;-64
2022/08/12 05:32:01;;;;;;;;;;;;;;;;;;2210025;67;1270;-64
2022/08/12 05:34:35;;;;;;;;;;;;;;;;;;2209821;67;1360;-62
2022/08/12 05:37:08;;;;;;;;;;;;;;;;;;2208718;67;1259;-61
2022/08/12 05:39:44;;;;;;;;;;;;;;;;;;2209847;67;1187;-62
2022/08/12 05:42:18;;;;;;;;;;;;;;;;;;2210154;59;1251;-60
2022/08/12 05:44:52;;;;;;;;;;;;;;;;;;2212691;59;1438;-64
2022/08/12 05:47:27;;;;;;;;;;;;;;;;;;2209812;67;1314;-63
2022/08/12 05:50:00;;;;;;;;;;;;;;;;;;2208792;66;1932;-64
2022/08/12 05:52:34;;;;;;;;;;;;;;;;;;2208822;67;1211;-58
2022/08/12 05:55:11;;;;;;;;;;;;;;;;;;2208657;67;1196;-61
2022/08/12 05:57:48;;;;;;;;;;;;;;;;;;2209798;59;1115;-63
2022/08/12 06:00:24;;;;;;;;;;;;;;;;;;2210523;67;1121;-59
2022/08/12 06:02:59;;;;;;;;;;;;;;;;;;2210744;59;1597;-58
2022/08/12 06:05:34;;;;;;;;;;;;;;;;;;2211022;67;1086;-64
2022/08/12 06:08:10;;;;;;;;;;;;;;;;;;2209829;67;1200;-60
2022/08/12 06:10:48;;;;;;;;;;;;;;;;;;2210470;59;1981;-61
2022/08/12 06:13:23;;;;;;;;;;;;;;;;;;2209533;67;1278;-62
2022/08/12 06:15:56;;;;;;;;;;;;;;;;;;2208245;67;1239;-64
2022/08/12 06:18:30;;;;;;;;;;;;;;;;;;2209750;67;1130;-62
2022/08/12 06:21:06;;;;;;;;;;;;;;;;;;2208213;67;1204;-63
2022/08/12 06:23:39;;;;;;;;;;;;;;;;;;2210193;67;1163;-64
2022/08/12 06:26:19;;;;;;;;;;;;;;;;;;2208510;67;1143;-63
2022/08/12 06:28:53;;;;;;;;;;;;;;;;;;2209022;67;1208;-62
2022/08/12 06:31:26;;;;;;;;;;;;;;;;;;2209095;59;1938;-63
2022/08/12 06:33:59;;;;;;;;;;;;;;;;;;2208661;67;1321;-64
2022/08/12 06:36:32;;;;;;;;;;;;;;;;;;2209360;59;1359;-61
2022/08/12 06:39:05;;;;;;;;;;;;;;;;;;2208652;67;1628;-64
2022/08/12 06:44:30;;;;;;;;;;;;;;;;;;2209872;59;1309;-63
2022/08/12 06:47:04;;;;;;;;;;;;;;;;;;2208792;67;1207;-61
2022/08/12 06:49:37;;;;;;;;;;;;;;;;;;2208955;67;1261;-61
2022/08/12 06:52:10;;;;;;;;;;;;;;;;;;2207880;67;2000;-63
2022/08/12 06:54:44;;;;;;;;;;;;;;;;;;2209674;67;1138;-63
2022/08/12 06:57:21;;;;;;;;;;;;;;;;;;2208490;67;1067;-64
2022/08/12 06:59:54;;;;;;;;;;;;;;;;;;2208607;67;1166;-62
2022/08/12 07:02:27;;;;;;;;;;;;;;;;;;2209861;59;2348;-63
2022/08/12 07:05:00;;;;;;;;;;;;;;;;;;2208564;59;1281;-64
2022/08/12 07:07:37;;;;;;;;;;;;;;;;;;2209742;67;1234;-64
2022/08/12 07:10:11;;;;;;;;;;;;;;;;;;2208862;67;1936;-64
2022/08/12 07:12:50;;;;;;;;;;;;;;;;;;2209734;59;1295;-65
2022/08/12 07:15:24;;;;;;;;;;;;;;;;;;2209025;67;1750;-65
2022/08/12 07:18:04;;;;;;;;;;;;;;;;;;2208511;67;1223;-64
2022/08/12 07:20:39;;;;;;;;;;;;;;;;;;2209372;67;1161;-64
2022/08/12 07:23:13;;;;;;;;;;;;;;;;;;2208894;67;1247;-64
2022/08/12 07:25:46;;;;;;;;;;;;;;;;;;2208792;67;1034;-64
2022/08/12 07:28:24;;;;;;;;;;;;;;;;;;2208771;67;1223;-65
2022/08/12 07:30:57;;;;;;;;;;;;;;;;;;2208186;67;1932;-65
2022/08/12 07:33:31;;;;;;;;;;;;;;;;;;2209069;67;1028;-64
2022/08/12 07:36:06;;;;;;;;;;;;;;;;;;2209973;59;2082;-64
2022/08/12 07:38:42;;;;;;;;;;;;;;;;;;2210638;66;1703;-64
2022/08/12 07:41:17;;;;;;;;;;;;;;;;;;2208474;67;1250;-64
2022/08/12 07:43:55;;;;;;;;;;;;;;;;;;2208940;66;1424;-61
2022/08/12 07:46:30;;;;;;;;;;;;;;;;;;2209832;67;1191;-63
2022/08/12 07:49:04;;;;;;;;;;;;;;;;;;2208324;67;1254;-63
2022/08/12 07:51:37;;;;;;;;;;;;;;;;;;2208730;67;1931;-64
2022/08/12 07:54:12;;;;;;;;;;;;;;;;;;2208809;67;1741;-64
2022/08/12 07:56:45;;;;;;;;;;;;;;;;;;2208474;67;1116;-63
2022/08/12 07:59:22;;;;;;;;;;;;;;;;;;2209218;67;1165;-64
2022/08/12 08:01:59;;;;;;;;;;;;;;;;;;2209311;59;1609;-64
2022/08/12 08:07:28;;;;;;;;;;;;;;;;;;2206948;67;1616;-64
2022/08/12 08:10:02;;;;;;;;;;;;;;;;;;2208662;67;1314;-64
2022/08/12 08:15:29;;;;;;;;;;;;;;;;;;2209185;67;1084;-64
2022/08/12 08:18:03;;;;;;;;;;;;;;;;;;2207981;67;1235;-64
2022/08/12 08:20:39;;;;;;;;;;;;;;;;;;2209523;67;1152;-64
2022/08/12 08:23:14;;;;;;;;;;;;;;;;;;2208822;67;1253;-61
2022/08/12 08:25:48;;;;;;;;;;;;;;;;;;2208731;67;1093;-65
2022/08/12 08:28:22;;;;;;;;;;;;;;;;;;2209224;67;1300;-65
2022/08/12 08:30:57;;;;;;;;;;;;;;;;;;2208133;66;1994;-64
2022/08/12 08:33:31;;;;;;;;;;;;;;;;;;2208461;67;1319;-65
2022/08/12 08:36:05;;;;;;;;;;;;;;;;;;2208479;59;1384;-65
2022/08/12 08:38:44;;;;;;;;;;;;;;;;;;2209003;67;1099;-64
2022/08/12 08:44:06;;;;;;;;;;;;;;;;;;2207907;59;1377;-64
2022/08/12 08:46:43;;;;;;;;;;;;;;;;;;2210088;67;1093;-64
2022/08/12 08:49:16;;;;;;;;;;;;;;;;;;2207908;67;1254;-65
2022/08/12 08:51:49;;;;;;;;;;;;;;;;;;2208575;66;1919;-65
2022/08/12 08:54:23;;;;;;;;;;;;;;;;;;2208975;67;1112;-65
2022/08/12 08:56:56;;;;;;;;;;;;;;;;;;2210303;66;1553;-65
2022/08/12 08:59:30;;;;;;;;;;;;;;;;;;2209381;67;1171;-65
2022/08/12 09:02:06;;;;;;;;;;;;;;;;;;2208070;59;1659;-65
2022/08/12 09:04:39;;;;;;;;;;;;;;;;;;2208529;59;1366;-63
2022/08/12 09:07:12;;;;;;;;;;;;;;;;;;2208744;67;1237;-65
2022/08/12 09:09:46;;;;;;;;;;;;;;;;;;2208419;67;1106;-65
2022/08/12 09:15:08;;;;;;;;;;;;;;;;;;2208416;67;1151;-64
2022/08/12 09:17:54;;;;;;;;;;;;;;;;;;2208574;67;1131;-65
2022/08/12 09:20:28;;;;;;;;;;;;;;;;;;2208989;67;1105;-65
2022/08/12 09:23:04;;;;;;;;;;;;;;;;;;2207940;67;1195;-65
2022/08/12 09:25:37;;;;;;;;;;;;;;;;;;2210042;67;1267;-64
2022/08/12 09:28:10;;;;;;;;;;;;;;;;;;2209439;67;1194;-65
2022/08/12 09:30:47;;;;;;;;;;;;;;;;;;2208813;67;1950;-62
2022/08/12 09:33:27;;;;;;;;;;;;;;;;;;2208142;67;1278;-63
2022/08/12 09:36:01;;;;;;;;;;;;;;;;;;2209009;59;1457;-64
2022/08/12 09:38:35;;;;;;;;;;;;;;;;;;2209479;67;1096;-64
2022/08/12 09:41:08;;;;;;;;;;;;;;;;;;2209140;67;1211;-63
2022/08/12 09:46:30;;;;;;;;;;;;;;;;;;2210183;67;1097;-65
2022/08/12 09:49:08;;;;;;;;;;;;;;;;;;2208292;66;1182;-64
2022/08/12 09:51:42;;;;;;;;;;;;;;;;;;2209579;67;1927;-64
2022/08/12 09:54:15;;;;;;;;;;;;;;;;;;2209171;67;1088;-65
2022/08/12 09:56:49;;;;;;;;;;;;;;;;;;2208977;67;1260;-64
2022/08/12 09:59:22;;;;;;;;;;;;;;;;;;2209636;67;1214;-64
2022/08/12 10:01:56;;;;;;;;;;;;;;;;;;2209229;59;1637;-65
2022/08/12 10:04:31;;;;;;;;;;;;;;;;;;2209222;59;1284;-64
2022/08/12 10:07:05;;;;;;;;;;;;;;;;;;2209214;67;1161;-65
2022/08/12 10:09:38;;;;;;;;;;;;;;;;;;2208974;67;1096;-63
2022/08/12 10:15:01;;;;;;;;;;;;;;;;;;2208584;59;1140;-65
2022/08/12 10:17:35;;;;;;;;;;;;;;;;;;2209358;67;1059;-65
2022/08/12 10:20:11;;;;;;;;;;;;;;;;;;2209282;67;1239;-64
2022/08/12 10:22:45;;;;;;;;;;;;;;;;;;2210159;67;1181;-65
2022/08/12 10:30:56;;;;;;;;;;;;;;;;;;2208454;67;1147;-65
2022/08/12 10:33:29;;;;;;;;;;;;;;;;;;2209962;59;1292;-65
2022/08/12 10:36:05;;;;;;;;;;;;;;;;;;2209660;59;1286;-65
2022/08/12 10:38:39;;;;;;;;;;;;;;;;;;2210173;59;1128;-64
2022/08/12 10:44:02;;;;;;;;;;;;;;;;;;2208527;59;1130;-64
2022/08/12 10:46:35;;;;;;;;;;;;;;;;;;2209833;67;1272;-65
2022/08/12 10:49:11;;;;;;;;;;;;;;;;;;2209763;67;1174;-65
2022/08/12 10:51:48;;;;;;;;;;;;;;;;;;2209226;67;2185;-66
2022/08/12 10:54:21;;;;;;;;;;;;;;;;;;2211041;67;1241;-65
2022/08/12 10:56:56;;;;;;;;;;;;;;;;;;2209644;66;1179;-65
2022/08/12 10:59:30;;;;;;;;;;;;;;;;;;2210618;59;1101;-65
2022/08/12 11:02:05;;;;;;;;;;;;;;;;;;2208804;59;1621;-65
2022/08/12 11:04:39;;;;;;;;;;;;;;;;;;2209771;59;1266;-65
2022/08/12 11:07:16;;;;;;;;;;;;;;;;;;2209613;67;1096;-64
2022/08/12 11:09:49;;;;;;;;;;;;;;;;;;2210598;67;1136;-63
2022/08/12 11:12:22;;;;;;;;;;;;;;;;;;2209136;59;1990;-64
2022/08/12 11:14:56;;;;;;;;;;;;;;;;;;2209177;66;1167;-63
2022/08/12 11:17:30;;;;;;;;;;;;;;;;;;2208841;67;1072;-65
2022/08/12 11:20:04;;;;;;;;;;;;;;;;;;2209915;67;1144;-65
2022/08/12 11:22:39;;;;;;;;;;;;;;;;;;2209627;67;1215;-64
2022/08/12 11:25:13;;;;;;;;;;;;;;;;;;2209110;59;1217;-65
2022/08/12 11:27:46;;;;;;;;;;;;;;;;;;2208424;67;1145;-65
2022/08/12 11:30:19;;;;;;;;;;;;;;;;;;2207998;67;1175;-65
2022/08/12 11:32:52;;;;;;;;;;;;;;;;;;2209482;66;1988;-64
2022/08/12 11:35:26;;;;;;;;;;;;;;;;;;2209373;59;1372;-65
2022/08/12 11:38:04;;;;;;;;;;;;;;;;;;2209123;67;1305;-65
2022/08/12 11:40:37;;;;;;;;;;;;;;;;;;2208552;67;1142;-63
2022/08/12 11:43:10;;;;;;;;;;;;;;;;;;2208713;59;1306;-65
2022/08/12 11:45:43;;;;;;;;;;;;;;;;;;2209909;67;1191;-65
2022/08/12 11:48:17;;;;;;;;;;;;;;;;;;2208822;67;1214;-65
2022/08/12 11:50:50;;;;;;;;;;;;;;;;;;2208678;66;1095;-64
2022/08/12 11:53:26;;;;;;;;;;;;;;;;;;2208550;67;1980;-65
2022/08/12 11:55:59;;;;;;;;;;;;;;;;;;2208718;67;1160;-65
2022/08/12 11:58:32;;;;;;;;;;;;;;;;;;2208895;67;1119;-63
2022/08/12 12:01:05;;;;;;;;;;;;;;;;;;2208430;67;1225;-65
2022/08/12 12:03:39;;;;;;;;;;;;;;;;;;2208946;59;2022;-65
2022/08/12 12:06:12;;;;;;;;;;;;;;;;;;2207697;67;1175;-64
2022/08/12 12:08:48;;;;;;;;;;;;;;;;;;2209596;67;1137;-65
2022/08/12 12:11:22;;;;;;;;;;;;;;;;;;2209107;59;1338;-65
2022/08/12 12:13:55;;;;;;;;;;;;;;;;;;2207867;66;1991;-65
2022/08/12 12:16:28;;;;;;;;;;;;;;;;;;2208842;67;1186;-65
2022/08/12 12:19:01;;;;;;;;;;;;;;;;;;2208031;67;1228;-65
2022/08/12 12:21:34;;;;;;;;;;;;;;;;;;2208669;67;1268;-64
2022/08/12 12:24:10;;;;;;;;;;;;;;;;;;2208641;67;1220;-65
2022/08/12 12:26:43;;;;;;;;;;;;;;;;;;2208804;67;1112;-64
2022/08/12 12:29:16;;;;;;;;;;;;;;;;;;2208729;67;1207;-64
2022/08/12 12:31:50;;;;;;;;;;;;;;;;;;2208437;67;2004;-65
2022/08/12 12:34:23;;;;;;;;;;;;;;;;;;2208159;67;1289;-63
2022/08/12 12:36:56;;;;;;;;;;;;;;;;;;2208139;59;1338;-64
2022/08/12 12:39:32;;;;;;;;;;;;;;;;;;2209231;67;1071;-63
2022/08/12 12:42:05;;;;;;;;;;;;;;;;;;2207534;59;1642;-65
2022/08/12 12:44:38;;;;;;;;;;;;;;;;;;2209665;67;1096;-65
2022/08/12 12:47:11;;;;;;;;;;;;;;;;;;2208484;67;1214;-64
2022/08/12 12:49:44;;;;;;;;;;;;;;;;;;2209359;67;1212;-64
2022/08/12 12:52:18;;;;;;;;;;;;;;;;;;2208029;67;1975;-65
2022/08/12 12:54:54;;;;;;;;;;;;;;;;;;2208534;66;1131;-64
2022/08/12 12:57:27;;;;;;;;;;;;;;;;;;2209179;67;1213;-65
2022/08/12 13:02:51;;;;;;;;;;;;;;;;;;2209691;59;2591;-64
2022/08/12 13:05:25;;;;;;;;;;;;;;;;;;2209597;67;1069;-64
2022/08/12 13:07:59;;;;;;;;;;;;;;;;;;2208299;67;1260;-63
2022/08/12 13:10:35;;;;;;;;;;;;;;;;;;2209134;67;1222;-65
2022/08/12 13:13:08;;;;;;;;;;;;;;;;;;2209124;67;1932;-65
2022/08/12 13:15:41;;;;;;;;;;;;;;;;;;2209206;67;1197;-65
2022/08/12 13:18:16;;;;;;;;;;;;;;;;;;2208497;67;1105;-65
2022/08/12 13:20:50;;;;;;;;;;;;;;;;;;2208874;67;1231;-64
2022/08/12 13:23:23;;;;;;;;;;;;;;;;;;2209891;67;1266;-65
2022/08/12 13:26:00;;;;;;;;;;;;;;;;;;2208841;66;1092;-64
2022/08/12 13:28:33;;;;;;;;;;;;;;;;;;2209527;67;1496;-65
2022/08/12 13:31:07;;;;;;;;;;;;;;;;;;2208232;67;1184;-62
2022/08/12 13:33:41;;;;;;;;;;;;;;;;;;2209329;67;1942;-65
2022/08/12 13:36:15;;;;;;;;;;;;;;;;;;2208848;59;1369;-65
2022/08/12 13:38:49;;;;;;;;;;;;;;;;;;2209292;67;1094;-64
2022/08/12 13:41:34;;;;;;;;;;;;;;;;;;2209088;67;1288;-64
2022/08/12 13:44:10;;;;;;;;;;;;;;;;;;2208401;59;1239;-64
2022/08/12 13:46:43;;;;;;;;;;;;;;;;;;2209506;67;1126;-64
2022/08/12 13:49:16;;;;;;;;;;;;;;;;;;2209163;67;1084;-65
2022/08/12 13:51:53;;;;;;;;;;;;;;;;;;2208516;67;1297;-62
2022/08/12 13:54:26;;;;;;;;;;;;;;;;;;2208441;59;1938;-64
2022/08/12 13:57:02;;;;;;;;;;;;;;;;;;2208394;67;1163;-64
2022/08/12 13:59:35;;;;;;;;;;;;;;;;;;2210024;59;1108;-64
2022/08/12 14:02:09;;;;;;;;;;;;;;;;;;2209230;59;1672;-65
2022/08/12 14:04:44;;;;;;;;;;;;;;;;;;2209819;59;1311;-63
2022/08/12 14:07:17;;;;;;;;;;;;;;;;;;2208622;67;1095;-63
2022/08/12 14:12:43;;;;;;;;;;;;;;;;;;2209760;59;1925;-65
2022/08/12 14:15:16;;;;;;;;;;;;;;;;;;2208641;67;1153;-65
2022/08/12 14:17:49;;;;;;;;;;;;;;;;;;2208632;66;1026;-65
2022/08/12 14:20:22;;;;;;;;;;;;;;;;;;2209169;67;1168;-65
2022/08/12 14:22:58;;;;;;;;;;;;;;;;;;2208266;66;1245;-63
2022/08/12 14:25:32;;;;;;;;;;;;;;;;;;2209778;67;1239;-65
2022/08/12 14:28:11;;;;;;;;;;;;;;;;;;2208445;67;1109;-63
2022/08/12 14:30:45;;;;;;;;;;;;;;;;;;2209542;67;1148;-64
2022/08/12 14:33:20;;;;;;;;;;;;;;;;;;2209144;67;1941;-65
2022/08/12 14:35:54;;;;;;;;;;;;;;;;;;2208753;59;1398;-63
2022/08/12 14:38:28;;;;;;;;;;;;;;;;;;2209332;67;1299;-65
2022/08/12 14:41:02;;;;;;;;;;;;;;;;;;2208583;67;1582;-62
2022/08/12 14:43:39;;;;;;;;;;;;;;;;;;2209063;59;1250;-64
2022/08/12 14:46:14;;;;;;;;;;;;;;;;;;2209169;67;1103;-63
2022/08/12 14:48:49;;;;;;;;;;;;;;;;;;2208674;67;1171;-64
2022/08/12 14:51:24;;;;;;;;;;;;;;;;;;2209781;59;1242;-62
2022/08/12 14:53:58;;;;;;;;;;;;;;;;;;2210656;66;1929;-63
2022/08/12 14:56:31;;;;;;;;;;;;;;;;;;2209985;67;1223;-65
2022/08/12 15:01:58;;;;;;;;;;;;;;;;;;2209218;59;2240;-63
2022/08/12 15:04:31;;;;;;;;;;;;;;;;;;2209764;59;1597;-64
2022/08/12 15:07:04;;;;;;;;;;;;;;;;;;2208874;67;1167;-65
2022/08/12 15:09:38;;;;;;;;;;;;;;;;;;2208734;67;1291;-65
2022/08/12 15:12:12;;;;;;;;;;;;;;;;;;2208798;67;1334;-64
2022/08/12 15:14:47;;;;;;;;;;;;;;;;;;2208532;67;1936;-64
2022/08/12 15:17:21;;;;;;;;;;;;;;;;;;2208280;67;1238;-63
2022/08/12 15:19:54;;;;;;;;;;;;;;;;;;2208396;66;1091;-63
2022/08/12 15:22:27;;;;;;;;;;;;;;;;;;2208347;67;1226;-63
2022/08/12 15:25:16;;;;;;;;;;;;;;;;;;2208974;66;1219;-63
2022/08/12 15:27:52;;;;;;;;;;;;;;;;;;2209467;67;1141;-64
2022/08/12 15:30:28;;;;;;;;;;;;;;;;;;2208462;67;1270;-64
2022/08/12 15:33:02;;;;;;;;;;;;;;;;;;2209081;67;1933;-64
2022/08/12 15:35:35;;;;;;;;;;;;;;;;;;2208543;67;1465;-64
2022/08/12 15:38:09;;;;;;;;;;;;;;;;;;2208021;67;1233;-64
2022/08/12 15:40:45;;;;;;;;;;;;;;;;;;2208770;67;1029;-66
2022/08/12 15:43:18;;;;;;;;;;;;;;;;;;2208359;59;1236;-64
2022/08/12 15:45:55;;;;;;;;;;;;;;;;;;2209208;67;1071;-64
2022/08/12 15:48:31;;;;;;;;;;;;;;;;;;2208563;67;1248;-64
2022/08/12 15:51:04;;;;;;;;;;;;;;;;;;2208646;67;1172;-62
2022/08/12 15:56:26;;;;;;;;;;;;;;;;;;2210114;67;1106;-65
2022/08/12 15:59:00;;;;;;;;;;;;;;;;;;2208697;66;1253;-64
2022/08/12 16:01:36;;;;;;;;;;;;;;;;;;2210356;59;1621;-64
2022/08/12 16:04:11;;;;;;;;;;;;;;;;;;2209405;59;1661;-64
2022/08/12 16:06:45;;;;;;;;;;;;;;;;;;2208600;67;1147;-65
2022/08/12 16:09:18;;;;;;;;;;;;;;;;;;2207975;67;1293;-65
2022/08/12 16:11:51;;;;;;;;;;;;;;;;;;2209051;59;1284;-64
2022/08/12 16:14:26;;;;;;;;;;;;;;;;;;2208827;67;1945;-64
2022/08/12 16:17:02;;;;;;;;;;;;;;;;;;2208536;67;1228;-64
2022/08/12 16:19:36;;;;;;;;;;;;;;;;;;2208743;67;1132;-64
2022/08/12 16:22:09;;;;;;;;;;;;;;;;;;2208726;67;1251;-63
2022/08/12 16:24:45;;;;;;;;;;;;;;;;;;2210431;67;1156;-64
2022/08/12 16:27:20;;;;;;;;;;;;;;;;;;2209685;67;1134;-65
2022/08/12 16:29:56;;;;;;;;;;;;;;;;;;2209983;66;1202;-64
2022/08/12 16:32:34;;;;;;;;;;;;;;;;;;2209375;67;1243;-64
2022/08/12 16:35:08;;;;;;;;;;;;;;;;;;2209653;67;1986;-64
2022/08/12 16:37:41;;;;;;;;;;;;;;;;;;2209633;59;1661;-63
2022/08/12 16:40:15;;;;;;;;;;;;;;;;;;2209360;67;1131;-64
2022/08/12 16:42:48;;;;;;;;;;;;;;;;;;2209182;59;1132;-64
2022/08/12 16:45:23;;;;;;;;;;;;;;;;;;2208530;67;1271;-62
2022/08/12 16:47:59;;;;;;;;;;;;;;;;;;2209451;66;1069;-65
2022/08/12 16:50:33;;;;;;;;;;;;;;;;;;2210093;67;1235;-65
2022/08/12 16:53:06;;;;;;;;;;;;;;;;;;2209776;67;1224;-64
2022/08/12 16:55:39;;;;;;;;;;;;;;;;;;2209845;67;1939;-62
2022/08/12 16:58:13;;;;;;;;;;;;;;;;;;2209115;67;1216;-64
2022/08/12 17:00:46;;;;;;;;;;;;;;;;;;2210053;67;1115;-63
2022/08/12 17:03:22;;;;;;;;;;;;;;;;;;2209623;59;1697;-64
2022/08/12 17:05:55;;;;;;;;;;;;;;;;;;2210421;67;1103;-64
2022/08/12 17:08:29;;;;;;;;;;;;;;;;;;2210496;67;1115;-65
2022/08/12 17:11:03;;;;;;;;;;;;;;;;;;2209289;59;1247;-65
2022/08/12 17:13:36;;;;;;;;;;;;;;;;;;2210611;67;1945;-64
2022/08/12 17:16:10;;;;;;;;;;;;;;;;;;2209576;67;1192;-64
2022/08/12 17:18:46;;;;;;;;;;;;;;;;;;2208784;67;1210;-63
2022/08/12 17:21:19;;;;;;;;;;;;;;;;;;2208607;67;1314;-63
2022/08/12 17:23:53;;;;;;;;;;;;;;;;;;2207862;67;1223;-64
2022/08/12 17:26:29;;;;;;;;;;;;;;;;;;2208482;67;1286;-64
2022/08/12 17:29:02;;;;;;;;;;;;;;;;;;2208756;67;1201;-64
2022/08/12 17:31:36;;;;;;;;;;;;;;;;;;2209293;67;1258;-64
2022/08/12 17:35:25;;;;;;;;;;;;;;;;;;2208729;67;1937;-64
2022/08/12 17:37:06;;;;;;;;;;;;;;;;;;2208509;59;1979;-63
2022/08/12 17:39:39;;;;;;;;;;;;;;;;;;2208859;67;1090;-64
2022/08/12 17:42:12;;;;;;;;;;;;;;;;;;2208484;59;1219;-65
2022/08/12 17:44:45;;;;;;;;;;;;;;;;;;2209815;67;1172;-64
2022/08/12 17:47:19;;;;;;;;;;;;;;;;;;2210102;67;1151;-64
2022/08/12 17:49:56;;;;;;;;;;;;;;;;;;2208706;66;4935;-63
2022/08/12 17:52:29;;;;;;;;;;;;;;;;;;2210359;67;1225;-62
2022/08/12 17:55:03;;;;;;;;;;;;;;;;;;2209460;66;1937;-63
2022/08/12 17:57:38;;;;;;;;;;;;;;;;;;2209401;67;1092;-64
2022/08/12 18:00:17;;;;;;;;;;;;;;;;;;2209171;67;1255;-62
2022/08/12 18:02:50;;;;;;;;;;;;;;;;;;2209414;59;1751;-63
2022/08/12 18:05:27;;;;;;;;;;;;;;;;;;2209306;67;1251;-62
2022/08/12 18:08:00;;;;;;;;;;;;;;;;;;2208990;67;1237;-63
2022/08/12 18:13:25;;;;;;;;;;;;;;;;;;2210065;67;1417;-64
2022/08/12 18:16:05;;;;;;;;;;;;;;;;;;2209990;66;1925;-65
2022/08/12 18:18:38;;;;;;;;;;;;;;;;;;2209928;59;1200;-64
2022/08/12 18:21:15;;;;;;;;;;;;;;;;;;2210024;67;1228;-64
2022/08/12 18:23:50;;;;;;;;;;;;;;;;;;2208830;67;1280;-63
2022/08/12 18:26:25;;;;;;;;;;;;;;;;;;2209424;67;1298;-63
2022/08/12 18:28:58;;;;;;;;;;;;;;;;;;2208468;67;1149;-63
2022/08/12 18:31:32;;;;;;;;;;;;;;;;;;2209740;67;1194;-62
2022/08/12 18:34:06;;;;;;;;;;;;;;;;;;2208804;67;1937;-63
2022/08/12 18:36:42;;;;;;;;;;;;;;;;;;2208928;67;1313;-64
2022/08/12 18:39:16;;;;;;;;;;;;;;;;;;2209934;67;1173;-62
2022/08/12 18:41:47;;;;;;;;;;;;;;;;;;2209171;59;1220;-62
2022/08/12 18:44:21;;;;;;;;;;;;;;;;;;2208872;59;1199;-64
2022/08/12 18:46:54;;;;;;;;;;;;;;;;;;2209170;66;1203;-63
2022/08/12 18:49:29;;;;;;;;;;;;;;;;;;2209405;67;1248;-62
2022/08/12 18:52:05;;;;;;;;;;;;;;;;;;2208772;59;1221;-61
2022/08/12 18:54:41;;;;;;;;;;;;;;;;;;2210709;67;1988;-63
2022/08/12 18:57:15;;;;;;;;;;;;;;;;;;2209187;67;1271;-64
2022/08/12 18:59:51;;;;;;;;;;;;;;;;;;2209780;67;1209;-64
2022/08/12 19:02:25;;;;;;;;;;;;;;;;;;2209573;59;1747;-61
2022/08/12 19:04:58;;;;;;;;;;;;;;;;;;2209894;59;1273;-62
2022/08/12 19:07:34;;;;;;;;;;;;;;;;;;2209381;67;1246;-64
2022/08/12 19:10:08;;;;;;;;;;;;;;;;;;2209260;67;1191;-63
2022/08/12 19:15:34;;;;;;;;;;;;;;;;;;2208811;67;2000;-60
2022/08/12 19:18:10;;;;;;;;;;;;;;;;;;2209345;67;1189;-63
2022/08/12 19:20:44;;;;;;;;;;;;;;;;;;2209426;67;1202;-63
2022/08/12 19:23:20;;;;;;;;;;;;;;;;;;2208851;67;1252;-60
2022/08/12 19:25:51;;;;;;;;;;;;;;;;;;2209169;66;1064;-62
2022/08/12 19:28:26;;;;;;;;;;;;;;;;;;2208810;59;1209;-63
2022/08/12 19:33:49;;;;;;;;;;;;;;;;;;2208701;67;1070;-61
2022/08/12 19:36:24;;;;;;;;;;;;;;;;;;2208710;67;1920;-63
2022/08/12 19:39:01;;;;;;;;;;;;;;;;;;2208385;67;1238;-63
2022/08/12 19:52:14;;;;;;;;;;;;;;;;;;2357454;53;1741;-53
2022/08/12 19:54:51;;;;;;;;;;;;;;;;;;2216818;58;2471;-54
2022/08/12 19:57:24;;;;;;;;;;;;;;;;;;2216275;59;1141;-54
2022/08/12 19:59:58;;;;;;;;;;;;;;;;;;2216548;66;1256;-54
2022/08/12 20:02:33;;;;;;;;;;;;;;;;;;2216658;58;1676;-53
2022/08/12 20:05:07;;;;;;;;;;;;;;;;;;2216645;66;1184;-53
2022/08/12 20:07:40;;;;;;;;;;;;;;;;;;2216417;66;1049;-54
2022/08/12 20:10:17;;;;;;;;;;;;;;;;;;2216317;58;1241;-54
2022/08/12 20:12:50;;;;;;;;;;;;;;;;;;2218090;58;1314;-54
2022/08/12 20:15:24;;;;;;;;;;;;;;;;;;2217337;58;1903;-53
2022/08/12 20:17:58;;;;;;;;;;;;;;;;;;2218112;66;1140;-53
2022/08/12 20:20:31;;;;;;;;;;;;;;;;;;2217999;66;1093;-55
2022/08/12 20:23:05;;;;;;;;;;;;;;;;;;2219308;66;1164;-53
2022/08/12 20:25:44;;;;;;;;;;;;;;;;;;2218370;66;1433;-53
2022/08/12 20:28:17;;;;;;;;;;;;;;;;;;2217901;58;1189;-53